Time;durP1;ratioP1;P1;durP2;ratioP2;P2;SDS_P1;SDS_P2;PMS_P1;PMS_P2;Temp;Humidity;BMP_temperature;BMP_pressure;BME280_temperature;BME280_humidity;BME280_pressure;Samples;Min_cycle;Max_cycle;Signal;HPM_P1;HPM_P2
2023/03/11 00:00:35;;;;;;;8.25;3.00;;;0.10;99.90;;;;;;7379628;19;20829;-80
2023/03/11 00:03:03;;;;;;;10.60;2.25;;;0.10;99.90;;;;;;7380240;19;20014;-79
2023/03/11 00:05:32;;;;;;;11.50;2.67;;;0.10;99.90;;;;;;7379866;19;20023;-78
2023/03/11 00:07:59;;;;;;;5.78;2.13;;;0.10;99.90;;;;;;7381045;19;20022;-78
2023/03/11 00:10:32;;;;;;;8.13;2.55;;;0.20;99.90;;;;;;7378868;19;20014;-79
2023/03/11 00:12:59;;;;;;;4.93;2.13;;;0.20;99.90;;;;;;7381762;19;20781;-79
2023/03/11 00:15:27;;;;;;;8.35;2.53;;;0.20;99.90;;;;;;7378077;19;20085;-79
2023/03/11 00:17:53;;;;;;;9.50;2.75;;;0.10;99.90;;;;;;7376583;19;20021;-80
2023/03/11 00:20:33;;;;;;;7.03;2.15;;;0.20;99.90;;;;;;7376198;19;20090;-79
2023/03/11 00:23:00;;;;;;;6.03;2.63;;;0.20;99.90;;;;;;7388697;19;20062;-78
2023/03/11 00:25:29;;;;;;;6.95;2.10;;;0.20;99.90;;;;;;7379389;19;20023;-79
2023/03/11 00:27:56;;;;;;;6.13;2.17;;;0.20;99.90;;;;;;7377755;19;20010;-79
2023/03/11 00:30:23;;;;;;;9.85;2.38;;;0.20;99.90;;;;;;7378194;19;20809;-80
2023/03/11 00:32:51;;;;;;;9.23;2.58;;;0.20;99.90;;;;;;7375265;19;20050;-78
2023/03/11 00:35:20;;;;;;;7.78;2.35;;;0.20;99.90;;;;;;7377131;19;20015;-80
2023/03/11 00:37:47;;;;;;;8.35;2.00;;;0.20;99.90;;;;;;7387392;19;20024;-79
2023/03/11 00:40:17;;;;;;;7.18;2.28;;;0.20;99.90;;;;;;7374850;19;20022;-67
2023/03/11 00:42:43;;;;;;;10.10;3.47;;;0.20;99.90;;;;;;7370101;19;20006;-67
2023/03/11 00:45:11;;;;;;;11.63;2.90;;;0.10;99.90;;;;;;7364365;19;20056;-67
2023/03/11 00:47:37;;;;;;;9.50;2.75;;;0.10;99.90;;;;;;7367708;19;20018;-66
2023/03/11 00:50:04;;;;;;;8.88;2.45;;;0.10;99.90;;;;;;7374820;19;20035;-79
2023/03/11 00:52:31;;;;;;;10.20;2.45;;;0.10;99.90;;;;;;7378111;19;20768;-80
2023/03/11 00:54:58;;;;;;;10.00;2.55;;;0.10;99.90;;;;;;7379383;19;20014;-79
2023/03/11 00:57:28;;;;;;;10.23;2.13;;;0.10;99.90;;;;;;7380462;19;20794;-78
2023/03/11 00:59:57;;;;;;;7.82;3.05;;;0.10;99.90;;;;;;7381940;19;20081;-79
2023/03/11 01:02:25;;;;;;;7.20;2.40;;;0.10;99.90;;;;;;7380978;19;20477;-79
2023/03/11 01:04:54;;;;;;;8.88;2.28;;;0.10;99.90;;;;;;7381157;19;20022;-80
2023/03/11 01:07:21;;;;;;;6.63;2.45;;;0.10;99.90;;;;;;7379980;19;20014;-79
2023/03/11 01:09:47;;;;;;;11.05;2.10;;;0.10;99.90;;;;;;7381803;19;20018;-79
2023/03/11 01:12:14;;;;;;;10.15;2.78;;;0.10;99.90;;;;;;7379478;19;20028;-79
2023/03/11 01:14:40;;;;;;;9.10;2.53;;;0.10;99.90;;;;;;7377537;19;20022;-79
2023/03/11 01:17:08;;;;;;;7.35;2.40;;;0.10;99.90;;;;;;7375157;19;20396;-78
2023/03/11 01:19:35;;;;;;;5.38;2.03;;;0.10;99.90;;;;;;7377613;19;20039;-79
2023/03/11 01:22:02;;;;;;;10.10;2.65;;;0.10;99.90;;;;;;7383160;19;20488;-80
2023/03/11 01:24:28;;;;;;;6.85;2.40;;;0.10;99.90;;;;;;7382519;19;20039;-79
2023/03/11 01:26:54;;;;;;;8.32;2.25;;;0.10;99.90;;;;;;7382004;19;20777;-79
2023/03/11 01:29:23;;;;;;;7.20;2.10;;;0.10;99.90;;;;;;7375486;19;20019;-79
2023/03/11 01:31:49;;;;;;;6.53;2.50;;;0.10;99.90;;;;;;7382257;19;20082;-80
2023/03/11 01:34:16;;;;;;;6.85;2.08;;;0.10;99.90;;;;;;7376553;19;20074;-80
2023/03/11 01:36:42;;;;;;;7.07;1.75;;;0.00;99.90;;;;;;7378964;19;20025;-80
2023/03/11 01:39:21;;;;;;;7.22;1.77;;;0.00;99.90;;;;;;7385841;19;20603;-80
2023/03/11 01:41:47;;;;;;;6.18;2.03;;;-0.10;99.90;;;;;;7370303;19;20029;-67
2023/03/11 01:44:13;;;;;;;7.10;1.73;;;-0.10;99.90;;;;;;7366416;19;20541;-67
2023/03/11 01:47:01;;;;;;;5.50;1.50;;;-0.10;99.90;;;;;;7362847;19;20514;-66
2023/03/11 01:49:35;;;;;;;10.85;1.80;;;-0.10;99.90;;;;;;7363302;19;20018;-67
2023/03/11 01:52:06;;;;;;;5.53;1.65;;;0.00;99.90;;;;;;7366082;19;20038;-67
2023/03/11 01:54:38;;;;;;;5.32;1.70;;;0.00;99.90;;;;;;7364642;19;20022;-66
2023/03/11 01:57:08;;;;;;;5.40;1.65;;;0.00;99.90;;;;;;7363645;19;20026;-66
2023/03/11 01:59:42;;;;;;;7.40;2.40;;;0.00;99.90;;;;;;7364412;19;20632;-67
2023/03/11 02:02:20;;;;;;;6.35;1.83;;;0.10;99.90;;;;;;7365907;19;20789;-67
2023/03/11 02:04:47;;;;;;;6.60;2.45;;;0.10;99.90;;;;;;7370865;19;20022;-67
2023/03/11 02:07:15;;;;;;;10.70;2.10;;;0.10;99.90;;;;;;7371921;19;20022;-67
2023/03/11 02:09:41;;;;;;;4.10;1.70;;;0.10;99.90;;;;;;7373255;19;20030;-68
2023/03/11 02:12:10;;;;;;;9.15;2.72;;;0.10;99.90;;;;;;7378405;19;20025;-68
2023/03/11 02:14:42;;;;;;;6.90;1.67;;;0.10;99.90;;;;;;7372143;19;20019;-68
2023/03/11 02:17:08;;;;;;;6.43;1.63;;;0.00;99.90;;;;;;7374750;19;20049;-67
2023/03/11 02:19:41;;;;;;;8.35;1.98;;;0.00;99.90;;;;;;7370378;19;20062;-68
2023/03/11 02:22:09;;;;;;;5.95;1.52;;;0.00;99.90;;;;;;7373227;19;20030;-67
2023/03/11 02:24:53;;;;;;;9.63;2.35;;;0.00;99.90;;;;;;7369868;19;20569;-67
2023/03/11 02:27:21;;;;;;;4.97;1.58;;;0.00;99.90;;;;;;7371723;19;20130;-68
2023/03/11 02:29:50;;;;;;;4.93;1.40;;;0.00;99.90;;;;;;7371091;19;20032;-68
2023/03/11 02:32:18;;;;;;;3.38;1.50;;;0.00;99.90;;;;;;7373962;19;20024;-67
2023/03/11 02:34:44;;;;;;;6.40;1.70;;;-0.10;99.90;;;;;;7368934;19;20026;-74
2023/03/11 02:37:14;;;;;;;7.53;1.60;;;-0.10;99.90;;;;;;7380186;19;20015;-67
2023/03/11 02:39:47;;;;;;;4.50;1.40;;;-0.10;99.90;;;;;;7373510;19;20026;-67
2023/03/11 02:42:31;;;;;;;5.78;1.40;;;-0.10;99.90;;;;;;7372009;19;20035;-67
2023/03/11 02:45:02;;;;;;;4.35;1.50;;;-0.10;99.90;;;;;;7379992;19;20026;-80
2023/03/11 02:47:29;;;;;;;;;;;-0.10;99.90;;;;;;7382671;19;20018;-67
2023/03/11 02:49:56;;;;;;;4.82;1.70;;;-0.10;99.90;;;;;;7385692;19;20293;-80
2023/03/11 02:52:26;;;;;;;9.93;2.53;;;-0.20;99.90;;;;;;7385858;19;20018;-80
2023/03/11 02:54:54;;;;;;;8.63;1.63;;;-0.20;99.90;;;;;;7379673;19;20019;-79
2023/03/11 02:57:20;;;;;;;6.38;1.63;;;-0.30;99.90;;;;;;7383890;19;20038;-80
2023/03/11 02:59:46;;;;;;;4.60;1.30;;;-0.30;99.90;;;;;;7380237;19;20011;-79
2023/03/11 03:02:15;;;;;;;6.50;1.40;;;-0.30;99.90;;;;;;7382196;19;20433;-79
2023/03/11 03:04:41;;;;;;;9.15;1.48;;;-0.50;99.90;;;;;;7375751;19;20054;-77
2023/03/11 03:07:11;;;;;;;4.80;1.42;;;-0.60;99.90;;;;;;7377843;19;20037;-78
2023/03/11 03:09:37;;;;;;;3.00;1.15;;;-0.60;99.90;;;;;;7376024;19;20823;-77
2023/03/11 03:12:04;;;;;;;5.38;1.52;;;-0.70;99.90;;;;;;7375888;19;20735;-77
2023/03/11 03:14:33;;;;;;;7.38;1.45;;;-0.80;99.90;;;;;;7370323;19;20489;-77
2023/03/11 03:16:59;;;;;;;5.60;2.10;;;-0.90;99.90;;;;;;7371182;19;20498;-77
2023/03/11 03:19:25;;;;;;;5.50;1.30;;;-0.90;99.90;;;;;;7373342;19;20489;-76
2023/03/11 03:21:53;;;;;;;3.60;1.20;;;-1.00;99.90;;;;;;7369663;19;20638;-75
2023/03/11 03:24:21;;;;;;;4.97;1.40;;;-1.10;99.90;;;;;;7372626;19;20025;-73
2023/03/11 03:26:48;;;;;;;9.98;1.70;;;-1.10;99.90;;;;;;7371649;19;20110;-73
2023/03/11 03:29:14;;;;;;;4.25;1.50;;;-1.20;99.90;;;;;;7370016;19;20033;-72
2023/03/11 03:31:40;;;;;;;6.28;1.88;;;-1.20;99.90;;;;;;7369624;19;20018;-73
2023/03/11 03:34:07;;;;;;;5.13;1.67;;;-1.10;99.90;;;;;;7368217;19;20466;-64
2023/03/11 03:36:33;;;;;;;4.05;1.45;;;-1.10;99.90;;;;;;7367813;19;20041;-65
2023/03/11 03:39:03;;;;;;;7.28;1.20;;;-1.10;99.90;;;;;;7371589;19;20595;-65
2023/03/11 03:41:33;;;;;;;2.58;1.17;;;-1.20;99.90;;;;;;7366295;19;20018;-65
2023/03/11 03:44:01;;;;;;;3.92;1.20;;;-1.20;99.90;;;;;;7371243;19;20022;-65
2023/03/11 03:46:28;;;;;;;5.95;1.45;;;-1.30;99.90;;;;;;7369364;19;20788;-64
2023/03/11 03:48:57;;;;;;;7.78;1.98;;;-1.40;99.90;;;;;;7374271;19;20018;-64
2023/03/11 03:51:24;;;;;;;4.03;1.88;;;-1.50;99.90;;;;;;7367800;19;21140;-65
2023/03/11 03:54:14;;;;;;;6.97;1.35;;;-1.70;99.90;;;;;;7372860;19;20885;-64
2023/03/11 03:56:40;;;;;;;5.78;1.67;;;-1.70;99.90;;;;;;7369610;19;20034;-65
2023/03/11 03:59:07;;;;;;;3.15;1.20;;;-1.80;99.90;;;;;;7373885;19;20090;-65
2023/03/11 04:01:38;;;;;;;3.80;1.70;;;-1.90;99.90;;;;;;7373494;19;20470;-65
2023/03/11 04:04:05;;;;;;;3.75;1.15;;;-2.00;99.90;;;;;;7374710;19;20034;-65
2023/03/11 04:06:32;;;;;;;5.63;1.65;;;-2.00;99.90;;;;;;7369722;19;20018;-65
2023/03/11 04:09:02;;;;;;;4.35;1.40;;;-2.10;99.90;;;;;;7372368;19;20019;-65
2023/03/11 04:11:32;;;;;;;3.42;1.65;;;-2.10;99.90;;;;;;7370749;19;20030;-65
2023/03/11 04:13:59;;;;;;;6.18;1.50;;;-2.20;99.90;;;;;;7372560;19;20105;-65
2023/03/11 04:16:25;;;;;;;4.20;1.30;;;-2.20;99.90;;;;;;7370889;19;20671;-75
2023/03/11 04:18:58;;;;;;;4.85;1.38;;;-2.30;99.90;;;;;;7372675;19;20014;-66
2023/03/11 04:21:24;;;;;;;7.93;1.77;;;-2.30;99.90;;;;;;7372835;19;20022;-65
2023/03/11 04:23:51;;;;;;;4.95;1.70;;;-2.40;99.90;;;;;;7371611;19;20785;-75
2023/03/11 04:26:24;;;;;;;5.00;2.03;;;-2.40;99.90;;;;;;7373613;19;20022;-65
2023/03/11 04:28:50;;;;;;;4.45;1.98;;;-2.40;99.90;;;;;;7373361;19;20036;-65
2023/03/11 04:31:17;;;;;;;9.55;1.80;;;-2.40;99.90;;;;;;7372854;19;20025;-65
2023/03/11 04:33:45;;;;;;;3.80;1.50;;;-2.40;99.90;;;;;;7373071;19;20025;-75
2023/03/11 04:36:12;;;;;;;5.63;1.55;;;-2.40;99.90;;;;;;7373903;19;20014;-75
2023/03/11 04:38:38;;;;;;;5.75;1.75;;;-2.40;99.90;;;;;;7375927;19;20485;-76
2023/03/11 04:41:07;;;;;;;7.32;2.63;;;-2.40;99.90;;;;;;7373575;19;20600;-65
2023/03/11 04:43:37;;;;;;;6.88;2.10;;;-2.40;99.90;;;;;;7379552;19;20512;-79
2023/03/11 04:46:03;;;;;;;3.30;1.50;;;-2.40;99.90;;;;;;7378566;19;20014;-78
2023/03/11 04:48:30;;;;;;;4.63;1.52;;;-2.40;99.90;;;;;;7383423;19;20022;-77
2023/03/11 04:50:56;;;;;;;4.20;1.65;;;-2.40;99.90;;;;;;7372309;19;20603;-66
2023/03/11 04:53:23;;;;;;;8.02;1.85;;;-2.50;99.90;;;;;;7377382;19;20015;-66
2023/03/11 04:55:51;;;;;;;4.93;1.73;;;-2.50;99.90;;;;;;7369779;19;20022;-66
2023/03/11 04:58:17;;;;;;;7.20;1.75;;;-2.50;99.90;;;;;;7370467;19;20014;-66
2023/03/11 05:00:45;;;;;;;6.28;1.92;;;-2.50;99.90;;;;;;7371355;19;20053;-66
2023/03/11 05:03:13;;;;;;;3.40;1.50;;;-2.50;99.90;;;;;;7369807;19;20018;-66
2023/03/11 05:05:40;;;;;;;5.55;1.85;;;-2.50;99.90;;;;;;7369986;19;20015;-66
2023/03/11 05:08:08;;;;;;;8.52;1.92;;;-2.60;99.90;;;;;;7368805;19;20018;-66
2023/03/11 05:10:35;;;;;;;4.47;1.75;;;-2.60;99.90;;;;;;7368135;19;20029;-66
2023/03/11 05:13:05;;;;;;;6.55;2.00;;;-2.60;99.90;;;;;;7367439;19;20860;-66
2023/03/11 05:15:35;;;;;;;6.80;1.92;;;-2.60;99.90;;;;;;7368823;19;20795;-66
2023/03/11 05:18:04;;;;;;;3.10;1.40;;;-2.60;99.90;;;;;;7370194;19;20041;-66
2023/03/11 05:20:31;;;;;;;9.57;2.00;;;-2.70;99.90;;;;;;7371879;19;20023;-75
2023/03/11 05:22:58;;;;;;;5.43;1.80;;;-2.70;99.90;;;;;;7373239;19;20029;-75
2023/03/11 05:25:25;;;;;;;3.92;1.67;;;-2.70;99.90;;;;;;7368522;19;20066;-75
2023/03/11 05:27:51;;;;;;;6.43;1.83;;;-2.80;99.90;;;;;;7362058;19;20049;-74
2023/03/11 05:30:18;;;;;;;4.82;1.65;;;-2.80;99.90;;;;;;7353970;19;20015;-74
2023/03/11 05:32:47;;;;;;;5.78;1.77;;;-2.80;99.90;;;;;;7355795;19;20898;-74
2023/03/11 05:35:14;;;;;;;4.25;2.00;;;-2.90;99.90;;;;;;7355467;19;20018;-74
2023/03/11 05:37:40;;;;;;;5.20;1.95;;;-3.00;99.90;;;;;;7355869;19;20019;-74
2023/03/11 05:40:08;;;;;;;4.20;1.77;;;-3.10;99.90;;;;;;7366972;19;20018;-74
2023/03/11 05:42:36;;;;;;;5.90;1.90;;;-3.20;99.90;;;;;;7372540;19;20475;-66
2023/03/11 05:45:04;;;;;;;3.17;1.35;;;-3.30;99.90;;;;;;7373736;19;20101;-66
2023/03/11 05:47:31;;;;;;;6.30;1.90;;;-3.40;99.90;;;;;;7374413;19;20026;-66
2023/03/11 05:49:58;;;;;;;4.55;1.83;;;-3.30;99.90;;;;;;7369826;19;20075;-66
2023/03/11 05:52:24;;;;;;;5.32;2.00;;;-3.40;99.90;;;;;;7375722;19;20019;-66
2023/03/11 05:54:51;;;;;;;3.42;1.33;;;-3.40;99.90;;;;;;7371472;19;20025;-66
2023/03/11 05:57:21;;;;;;;3.95;1.75;;;-3.30;99.90;;;;;;7371994;19;20086;-65
2023/03/11 05:59:47;;;;;;;9.10;1.88;;;-3.40;99.90;;;;;;7371468;19;20022;-65
2023/03/11 06:02:14;;;;;;;3.60;1.50;;;-3.50;99.90;;;;;;7375030;19;20608;-65
2023/03/11 06:04:41;;;;;;;4.55;1.60;;;-3.70;99.90;;;;;;7374707;19;20092;-65
2023/03/11 06:07:11;;;;;;;6.82;2.05;;;-3.70;99.90;;;;;;7376242;19;20010;-65
2023/03/11 06:09:38;;;;;;;7.10;1.65;;;-3.90;99.90;;;;;;7357222;19;20014;-65
2023/03/11 06:12:08;;;;;;;3.38;1.60;;;-3.90;99.90;;;;;;7363019;19;20022;-65
2023/03/11 06:14:49;;;;;;;5.15;2.22;;;-3.90;99.90;;;;;;7360577;19;21232;-66
2023/03/11 06:17:15;;;;;;;6.85;3.03;;;-3.90;99.90;;;;;;7362628;19;20027;-66
2023/03/11 06:19:42;;;;;;;6.28;2.03;;;-3.90;99.90;;;;;;7362279;19;20026;-67
2023/03/11 06:22:09;;;;;;;3.10;1.65;;;-3.90;99.90;;;;;;7365830;19;20796;-66
2023/03/11 06:24:36;;;;;;;2.72;1.70;;;-4.00;99.90;;;;;;7365638;19;20473;-67
2023/03/11 06:27:03;;;;;;;4.40;1.85;;;-3.90;99.90;;;;;;7364688;19;20018;-66
2023/03/11 06:29:29;;;;;;;2.78;1.42;;;-3.90;99.90;;;;;;7367715;19;20029;-67
2023/03/11 06:31:56;;;;;;;2.72;1.75;;;-3.90;99.90;;;;;;7365007;19;20030;-68
2023/03/11 06:34:22;;;;;;;5.25;1.70;;;-3.90;99.90;;;;;;7368810;19;20030;-76
2023/03/11 06:36:50;;;;;;;3.53;1.60;;;-3.90;99.90;;;;;;7369166;19;20018;-75
2023/03/11 06:39:16;;;;;;;3.63;1.60;;;-4.00;99.90;;;;;;7366991;19;20011;-75
2023/03/11 06:41:46;;;;;;;3.83;1.73;;;-3.90;99.90;;;;;;7375397;19;20026;-75
2023/03/11 06:44:13;;;;;;;5.28;2.10;;;-3.80;99.90;;;;;;7375546;19;20025;-75
2023/03/11 06:46:40;;;;;;;6.20;2.25;;;-3.70;99.90;;;;;;7375573;19;20029;-74
2023/03/11 06:49:06;;;;;;;4.60;1.60;;;-3.70;99.90;;;;;;7372883;19;20116;-74
2023/03/11 06:51:33;;;;;;;4.90;1.75;;;-3.60;99.90;;;;;;7373757;19;20024;-74
2023/03/11 06:54:00;;;;;;;7.65;1.80;;;-3.60;99.90;;;;;;7376976;19;20090;-74
2023/03/11 06:56:27;;;;;;;2.92;1.20;;;-3.50;99.90;;;;;;7375297;19;20018;-73
2023/03/11 06:59:01;;;;;;;5.50;1.80;;;-3.50;99.90;;;;;;7376857;19;20019;-74
2023/03/11 07:01:31;;;;;;;4.55;1.70;;;-3.50;99.90;;;;;;7374508;19;20026;-74
2023/03/11 07:04:02;;;;;;;6.20;1.93;;;-3.40;99.90;;;;;;7375944;19;20474;-73
2023/03/11 07:06:30;;;;;;;2.38;1.52;;;-3.50;99.90;;;;;;7374114;19;20291;-67
2023/03/11 07:09:04;;;;;;;3.47;1.67;;;-3.50;99.90;;;;;;7365929;19;20026;-67
2023/03/11 07:11:32;;;;;;;6.40;2.20;;;-3.40;99.90;;;;;;7358250;19;20594;-67
2023/03/11 07:14:06;;;;;;;4.43;1.67;;;-3.20;99.90;;;;;;7361176;19;20021;-67
2023/03/11 07:16:38;;;;;;;7.78;1.90;;;-3.10;99.90;;;;;;7363106;19;20577;-68
2023/03/11 07:19:10;;;;;;;3.05;1.70;;;-2.90;99.90;;;;;;7362007;19;20507;-67
2023/03/11 07:21:38;;;;;;;5.40;1.70;;;-2.60;99.90;;;;;;7360402;19;20557;-67
2023/03/11 07:24:05;;;;;;;4.20;1.80;;;-2.40;99.90;;;;;;7374927;19;20018;-67
2023/03/11 07:26:33;;;;;;;5.82;2.15;;;-2.00;99.90;;;;;;7372266;19;20529;-67
2023/03/11 07:29:00;;;;;;;6.53;1.80;;;-1.70;99.90;;;;;;7372942;19;20089;-66
2023/03/11 07:31:29;;;;;;;6.60;2.00;;;-1.50;99.90;;;;;;7385949;19;20085;-75
2023/03/11 07:33:58;;;;;;;3.85;1.50;;;-1.20;99.90;;;;;;7385084;19;20017;-72
2023/03/11 07:36:27;;;;;;;3.60;1.45;;;-0.80;99.90;;;;;;7375929;19;20018;-73
2023/03/11 07:39:13;;;;;;;6.60;1.85;;;-0.40;99.90;;;;;;7377301;19;20021;-73
2023/03/11 07:41:39;;;;;;;6.95;1.60;;;-0.30;99.90;;;;;;7375300;19;20403;-73
2023/03/11 07:44:06;;;;;;;5.32;1.70;;;-0.10;99.90;;;;;;7374357;19;20035;-75
2023/03/11 07:46:33;;;;;;;4.97;1.80;;;0.20;99.90;;;;;;7375817;19;20022;-75
2023/03/11 07:49:01;;;;;;;4.10;1.55;;;0.40;99.90;;;;;;7370717;19;20035;-73
2023/03/11 07:51:30;;;;;;;4.68;1.48;;;0.70;99.90;;;;;;7372207;19;20368;-75
2023/03/11 07:53:58;;;;;;;6.00;1.88;;;0.80;99.90;;;;;;7372249;19;20600;-75
2023/03/11 07:56:27;;;;;;;5.88;1.92;;;1.00;99.90;;;;;;7372394;19;20425;-71
2023/03/11 07:58:54;;;;;;;6.45;1.70;;;1.30;99.90;;;;;;7369694;19;20018;-63
2023/03/11 08:01:22;;;;;;;8.75;1.58;;;1.40;99.90;;;;;;7373843;19;20022;-63
2023/03/11 08:03:55;;;;;;;5.00;1.42;;;1.50;99.90;;;;;;7376500;19;20010;-64
2023/03/11 08:06:27;;;;;;;7.38;1.50;;;1.90;99.90;;;;;;7373511;19;20739;-69
2023/03/11 08:08:54;;;;;;;4.65;1.77;;;2.20;99.90;;;;;;7370618;19;20824;-68
2023/03/11 08:11:21;;;;;;;6.90;1.92;;;2.50;99.90;;;;;;7372442;19;20025;-63
2023/03/11 08:13:49;;;;;;;4.28;1.83;;;2.90;99.90;;;;;;7371369;19;20382;-63
2023/03/11 08:16:18;;;;;;;4.68;1.95;;;3.20;99.90;;;;;;7377167;19;20011;-63
2023/03/11 08:18:49;;;;;;;7.43;1.55;;;3.60;99.90;;;;;;7374472;19;20014;-63
2023/03/11 08:21:22;;;;;;;5.07;1.40;;;4.00;99.90;;;;;;7376245;19;20018;-63
2023/03/11 08:23:49;;;;;;;9.13;1.60;;;4.40;99.90;;;;;;7369944;19;20022;-63
2023/03/11 08:26:18;;;;;;;7.15;1.48;;;5.00;99.90;;;;;;7373395;19;20820;-63
2023/03/11 08:28:45;;;;;;;7.65;1.48;;;5.60;99.90;;;;;;7371293;19;20512;-63
2023/03/11 08:31:20;;;;;;;5.93;1.40;;;6.10;99.90;;;;;;7373537;19;20053;-63
2023/03/11 08:33:49;;;;;;;5.40;1.35;;;6.30;99.90;;;;;;7372841;19;20022;-62
2023/03/11 08:36:16;;;;;;;4.82;1.20;;;6.70;99.90;;;;;;7368130;19;20022;-62
2023/03/11 08:38:42;;;;;;;5.45;1.38;;;7.30;99.90;;;;;;7362058;19;20018;-64
2023/03/11 08:41:08;;;;;;;5.85;1.33;;;7.80;99.90;;;;;;7360214;19;20063;-68
2023/03/11 08:43:35;;;;;;;3.42;1.13;;;7.80;99.90;;;;;;7360955;19;20533;-67
2023/03/11 08:46:05;;;;;;;4.85;1.20;;;8.20;99.90;;;;;;7360292;19;21385;-67
2023/03/11 08:48:32;;;;;;;3.92;1.30;;;8.10;99.90;;;;;;7363105;19;20711;-67
2023/03/11 08:50:58;;;;;;;4.38;1.55;;;8.10;99.90;;;;;;7352686;19;20015;-67
2023/03/11 08:53:26;;;;;;;8.07;1.80;;;8.40;99.90;;;;;;7362619;19;20593;-67
2023/03/11 08:55:52;;;;;;;5.20;1.45;;;8.40;99.90;;;;;;7353880;19;20069;-67
2023/03/11 08:58:20;;;;;;;3.92;1.42;;;9.10;99.90;;;;;;7361224;19;20129;-67
2023/03/11 09:00:46;;;;;;;6.95;1.50;;;9.50;99.90;;;;;;7372342;19;20018;-67
2023/03/11 09:03:13;;;;;;;3.60;1.58;;;9.80;99.90;;;;;;7372079;19;20018;-68
2023/03/11 09:05:39;;;;;;;4.35;1.40;;;10.00;99.90;;;;;;7370696;19;20105;-69
2023/03/11 09:08:05;;;;;;;4.97;1.50;;;10.00;99.90;;;;;;7366463;19;20056;-71
2023/03/11 09:10:32;;;;;;;4.55;1.48;;;10.20;99.90;;;;;;7369557;19;20022;-71
2023/03/11 09:12:59;;;;;;;5.03;1.40;;;10.30;99.90;;;;;;7369249;19;20025;-65
2023/03/11 09:15:26;;;;;;;6.47;1.20;;;10.40;99.90;;;;;;7370925;19;20014;-65
2023/03/11 09:17:53;;;;;;;5.22;1.20;;;10.30;99.90;;;;;;7364382;19;20033;-65
2023/03/11 09:20:19;;;;;;;6.05;1.13;;;10.30;99.90;;;;;;7374030;19;20049;-71
2023/03/11 09:22:46;;;;;;;4.13;1.13;;;10.40;99.90;;;;;;7363935;19;20472;-73
2023/03/11 09:25:13;;;;;;;6.40;1.30;;;10.60;99.90;;;;;;7362693;19;20015;-73
2023/03/11 09:27:40;;;;;;;6.25;1.60;;;11.30;99.90;;;;;;7356237;19;20031;-64
2023/03/11 09:30:07;;;;;;;5.88;1.40;;;11.10;99.90;;;;;;7353939;19;20093;-65
2023/03/11 09:32:34;;;;;;;6.43;1.50;;;11.10;99.90;;;;;;7351750;19;20030;-65
2023/03/11 09:35:01;;;;;;;6.55;1.63;;;11.20;99.90;;;;;;7355525;19;20038;-65
2023/03/11 09:37:29;;;;;;;6.22;1.55;;;11.80;99.90;;;;;;7363805;19;20078;-64
2023/03/11 09:39:55;;;;;;;4.55;1.55;;;12.00;99.90;;;;;;7367720;19;20031;-74
2023/03/11 09:42:52;;;;;;;5.32;1.40;;;12.10;99.90;;;;;;7369241;19;20090;-73
2023/03/11 09:45:23;;;;;;;3.63;1.35;;;12.20;93.00;;;;;;7369455;19;20014;-74
2023/03/11 09:48:29;;;;;;;6.10;1.50;;;11.60;99.90;;;;;;7368310;19;20025;-74
2023/03/11 09:51:08;;;;;;;4.28;1.40;;;11.90;75.20;;;;;;7366488;19;20023;-74
2023/03/11 09:53:44;;;;;;;4.18;1.10;;;11.20;78.40;;;;;;7367921;19;20018;-75
2023/03/11 09:56:14;;;;;;;5.85;1.30;;;11.00;99.90;;;;;;7365831;19;20022;-73
2023/03/11 09:58:46;;;;;;;5.95;1.33;;;11.20;97.00;;;;;;7367783;19;20043;-75
2023/03/11 10:01:45;;;;;;;4.70;1.63;;;10.90;99.40;;;;;;7363618;19;20022;-75
2023/03/11 10:04:17;;;;;;;7.38;1.30;;;10.90;80.60;;;;;;7366894;19;20744;-73
2023/03/11 10:06:46;;;;;;;6.80;1.90;;;11.10;97.80;;;;;;7367832;19;20018;-72
2023/03/11 10:09:18;;;;;;;4.13;1.40;;;11.30;91.80;;;;;;7366749;19;20075;-72
2023/03/11 10:12:01;;;;;;;4.53;1.83;;;11.20;96.20;;;;;;7359021;19;20039;-73
2023/03/11 10:14:49;;;;;;;6.45;1.45;;;11.20;74.00;;;;;;7359524;19;20482;-73
2023/03/11 10:17:40;;;;;;;6.05;1.40;;;10.90;76.80;;;;;;7368516;19;20387;-74
2023/03/11 10:20:39;;;;;;;4.13;1.30;;;11.00;89.30;;;;;;7369733;19;20772;-72
2023/03/11 10:23:20;;;;;;;3.60;1.33;;;11.10;85.00;;;;;;7364731;19;20022;-73
2023/03/11 10:26:20;;;;;;;4.10;1.25;;;11.40;94.80;;;;;;7372289;19;20022;-72
2023/03/11 10:29:06;;;;;;;6.32;1.23;;;11.50;81.80;;;;;;7372289;19;20026;-72
2023/03/11 10:32:06;;;;;;;6.22;1.80;;;11.60;81.00;;;;;;7373115;19;20019;-73
2023/03/11 10:34:44;;;;;;;3.80;1.23;;;11.40;76.60;;;;;;7372168;19;20421;-73
2023/03/11 10:37:17;;;;;;;5.85;1.67;;;12.10;80.10;;;;;;7379649;19;20648;-72
2023/03/11 10:39:47;;;;;;;6.78;1.55;;;12.50;82.80;;;;;;7372047;19;20018;-73
2023/03/11 10:42:23;;;;;;;6.25;1.80;;;12.10;76.40;;;;;;7377031;19;20030;-71
2023/03/11 10:44:50;;;;;;;3.42;1.35;;;12.40;72.00;;;;;;7375088;19;20505;-72
2023/03/11 10:47:21;;;;;;;5.72;1.40;;;12.70;81.90;;;;;;7376209;19;20029;-72
2023/03/11 10:49:49;;;;;;;6.90;1.83;;;12.40;72.30;;;;;;7373937;19;20023;-75
2023/03/11 10:52:15;;;;;;;5.85;1.50;;;12.60;77.90;;;;;;7370994;19;20797;-73
2023/03/11 10:54:46;;;;;;;6.82;1.55;;;12.20;73.40;;;;;;7371033;19;20022;-75
2023/03/11 10:57:31;;;;;;;4.22;1.38;;;12.30;69.50;;;;;;7374798;19;20014;-75
2023/03/11 11:00:00;;;;;;;3.90;1.30;;;13.10;73.40;;;;;;7367332;19;20019;-75
2023/03/11 11:02:32;;;;;;;4.57;1.77;;;13.30;76.00;;;;;;7362867;19;20023;-75
2023/03/11 11:05:16;;;;;;;;;;;12.90;67.00;;;;;;7364576;19;20851;-74
2023/03/11 11:07:52;;;;;;;4.70;1.45;;;12.80;68.20;;;;;;7364714;19;19926;-75
2023/03/11 11:10:24;;;;;;;5.68;1.77;;;13.10;68.00;;;;;;7369185;19;20023;-75
2023/03/11 11:13:02;;;;;;;4.53;1.70;;;12.90;67.30;;;;;;7363916;19;20098;-65
2023/03/11 11:15:37;;;;;;;5.70;1.33;;;13.40;70.00;;;;;;7367172;19;20045;-65
2023/03/11 11:18:14;;;;;;;5.20;1.30;;;13.10;66.20;;;;;;7363108;19;20028;-65
2023/03/11 11:21:12;;;;;;;5.95;1.30;;;13.90;69.30;;;;;;7367399;19;21123;-65
2023/03/11 11:23:47;;;;;;;4.72;1.48;;;14.20;64.50;;;;;;7366144;19;20057;-64
2023/03/11 11:26:21;;;;;;;3.35;1.08;;;14.30;64.50;;;;;;7368532;19;20015;-65
2023/03/11 11:29:11;;;;;;;7.05;1.50;;;14.00;61.70;;;;;;7363333;19;20026;-65
2023/03/11 11:31:42;;;;;;;7.72;1.70;;;14.40;61.60;;;;;;7362187;19;20022;-66
2023/03/11 11:34:28;;;;;;;;;;;14.00;61.60;;;;;;7363145;19;20317;-66
2023/03/11 11:36:57;;;;;;;3.88;1.35;;;12.50;61.50;;;;;;7366644;19;19927;-66
2023/03/11 11:39:29;;;;;;;7.07;1.70;;;12.80;63.50;;;;;;7361512;19;20110;-66
2023/03/11 11:41:56;;;;;;;4.18;2.03;;;13.70;63.50;;;;;;7361754;19;20501;-65
2023/03/11 11:44:36;;;;;;;4.90;1.48;;;13.80;63.40;;;;;;7366086;19;20556;-66
2023/03/11 11:47:35;;;;;;;5.07;1.50;;;14.20;62.80;;;;;;7366462;19;20022;-65
2023/03/11 11:50:05;;;;;;;5.38;1.40;;;13.80;60.60;;;;;;7363582;19;20064;-65
2023/03/11 11:52:39;;;;;;;4.68;1.33;;;13.80;64.20;;;;;;7356896;19;20018;-64
2023/03/11 11:55:25;;;;;;;7.63;1.80;;;12.60;60.50;;;;;;7356542;19;20055;-65
2023/03/11 11:57:52;;;;;;;5.00;1.38;;;12.80;62.80;;;;;;7361319;19;20027;-65
2023/03/11 12:00:24;;;;;;;6.15;1.50;;;12.90;63.70;;;;;;7368947;19;20018;-74
2023/03/11 12:03:34;;;;;;;3.88;1.50;;;12.80;61.80;;;;;;7369468;19;20042;-75
2023/03/11 12:06:18;;;;;;;4.53;1.02;;;12.80;61.80;;;;;;7365147;19;20777;-74
2023/03/11 12:09:14;;;;;;;9.95;1.90;;;13.60;63.00;;;;;;7368686;19;20659;-74
2023/03/11 12:11:56;;;;;;;3.75;1.08;;;12.70;61.40;;;;;;7363038;19;20014;-75
2023/03/11 12:14:43;;;;;;;6.25;1.15;;;12.40;60.00;;;;;;7367600;19;20398;-75
2023/03/11 12:17:17;;;;;;;5.72;0.90;;;12.20;61.80;;;;;;7364486;19;20010;-65
2023/03/11 12:19:55;;;;;;;3.33;0.60;;;12.30;60.90;;;;;;7362408;19;20015;-64
2023/03/11 12:22:37;;;;;;;4.05;0.80;;;11.90;59.40;;;;;;7364795;19;21310;-65
2023/03/11 12:25:21;;;;;;;2.92;0.73;;;11.80;59.90;;;;;;7360412;19;20050;-64
2023/03/11 12:27:59;;;;;;;5.07;1.13;;;12.50;60.20;;;;;;7362453;19;20014;-64
2023/03/11 12:30:30;;;;;;;5.32;0.90;;;12.70;59.00;;;;;;7363320;19;20027;-64
2023/03/11 12:33:04;;;;;;;7.57;0.80;;;12.40;58.50;;;;;;7365603;19;20019;-64
2023/03/11 12:35:33;;;;;;;5.10;1.02;;;12.20;59.90;;;;;;7363712;19;20014;-64
2023/03/11 12:38:17;;;;;;;4.40;0.90;;;12.70;59.50;;;;;;7362329;19;20045;-64
2023/03/11 12:40:58;;;;;;;6.13;1.23;;;12.00;57.60;;;;;;7364786;19;20086;-64
2023/03/11 12:43:46;;;;;;;3.15;0.70;;;12.50;59.30;;;;;;7367356;19;20022;-73
2023/03/11 12:46:16;;;;;;;3.83;0.98;;;11.90;57.70;;;;;;7367113;19;20015;-63
2023/03/11 12:49:08;;;;;;;3.90;0.80;;;12.40;59.70;;;;;;7362735;19;20011;-64
2023/03/11 12:51:36;;;;;;;3.75;0.70;;;12.10;57.40;;;;;;7364475;19;20490;-64
2023/03/11 12:54:28;;;;;;;2.75;0.75;;;12.10;57.90;;;;;;7363576;19;20029;-63
2023/03/11 12:57:00;;;;;;;6.78;1.20;;;11.50;60.10;;;;;;7364092;19;20036;-64
2023/03/11 12:59:45;;;;;;;3.58;0.95;;;12.00;59.90;;;;;;7365019;19;20106;-64
2023/03/11 13:02:40;;;;;;;2.95;0.70;;;12.00;58.50;;;;;;7363934;19;20130;-63
2023/03/11 13:05:41;;;;;;;3.85;1.25;;;11.80;57.80;;;;;;7363903;19;20768;-64
2023/03/11 13:08:10;;;;;;;5.65;1.02;;;12.40;58.10;;;;;;7361249;19;20140;-62
2023/03/11 13:10:41;;;;;;;6.70;1.10;;;13.40;58.60;;;;;;7360462;19;20018;-63